createdAt,value
2024-04-21T00:00:52.206Z,94.71
2024-04-21T00:01:52.195Z,94.71
2024-04-21T00:02:52.186Z,94.71
2024-04-21T00:03:52.387Z,94.40
2024-04-21T00:04:52.204Z,94.09
2024-04-21T00:05:52.158Z,94.50
2024-04-21T00:06:52.162Z,95.22
2024-04-21T00:07:52.139Z,95.53
2024-04-21T00:08:52.133Z,94.40
2024-04-21T00:09:52.139Z,94.71
2024-04-21T00:10:52.124Z,94.25
2024-04-21T00:11:52.092Z,94.15
2024-04-21T00:12:52.103Z,94.67
2024-04-21T00:13:52.110Z,94.56
2024-04-21T00:14:52.066Z,94.15
2024-04-21T00:15:52.150Z,94.15
2024-04-21T00:16:52.238Z,93.22
2024-04-21T00:17:52.056Z,92.19
2024-04-21T00:18:52.053Z,92.19
2024-04-21T00:19:52.013Z,92.08
2024-04-21T00:20:52.007Z,92.04
2024-04-21T00:21:52.071Z,92.80
2024-04-21T00:22:51.989Z,93.01
2024-04-21T00:23:51.975Z,92.91
2024-04-21T00:24:51.997Z,92.35
2024-04-21T00:25:51.965Z,92.86
2024-04-21T00:26:51.950Z,93.32
2024-04-21T00:27:51.978Z,93.63
2024-04-21T00:28:51.924Z,93.53
2024-04-21T00:29:51.921Z,93.49
2024-04-21T00:30:51.935Z,93.18
2024-04-21T00:31:51.912Z,93.43
2024-04-21T00:32:51.958Z,93.01
2024-04-21T00:33:52.039Z,92.66
2024-04-21T00:34:51.866Z,92.08
2024-04-21T00:35:51.864Z,91.94
2024-04-21T00:36:51.875Z,91.63
2024-04-21T00:37:51.850Z,91.73
2024-04-21T00:38:51.829Z,91.52
2024-04-21T00:39:51.846Z,91.32
2024-04-21T00:40:51.806Z,91.11
2024-04-21T00:41:51.811Z,91.26
2024-04-21T00:42:51.798Z,91.22
2024-04-21T00:43:51.784Z,91.22
2024-04-21T00:44:51.793Z,91.42
2024-04-21T00:45:51.809Z,92.08
2024-04-21T00:46:51.865Z,93.43
2024-04-21T00:47:51.742Z,93.22
2024-04-21T00:48:51.781Z,93.32
2024-04-21T00:49:51.746Z,92.76
2024-04-21T00:50:51.792Z,92.80
2024-04-21T00:51:51.734Z,92.46
2024-04-21T00:52:51.698Z,91.42
2024-04-21T00:53:51.677Z,91.52
2024-04-21T00:54:51.793Z,91.52
2024-04-21T00:55:51.676Z,91.63
2024-04-21T00:56:51.651Z,91.94
2024-04-21T00:57:51.699Z,91.32
2024-04-21T00:58:51.656Z,91.36
2024-04-21T00:59:51.640Z,91.16
2024-04-21T01:00:51.704Z,91.36
2024-04-21T01:01:51.657Z,91.16
2024-04-21T01:02:51.609Z,91.26
2024-04-21T01:03:51.656Z,91.16
2024-04-21T01:04:51.667Z,90.64
2024-04-21T01:05:53.606Z,90.12
2024-04-21T01:06:51.581Z,89.75
2024-04-21T01:07:51.553Z,89.54
2024-04-21T01:08:51.544Z,89.69
2024-04-21T01:09:51.577Z,89.69
2024-04-21T01:10:51.556Z,89.07
2024-04-21T01:11:51.515Z,89.79
2024-04-21T01:12:51.509Z,89.79
2024-04-21T01:13:51.518Z,89.48
2024-04-21T01:14:51.488Z,90.35
2024-04-21T01:15:51.757Z,90.20
2024-04-21T01:16:51.450Z,90.10
2024-04-21T01:17:51.650Z,90.31
2024-04-21T01:18:51.508Z,90.52
2024-04-21T01:19:51.429Z,90.52
2024-04-21T01:20:51.416Z,90.56
2024-04-21T01:21:51.447Z,90.10
2024-04-21T01:22:51.403Z,90.41
2024-04-21T01:23:51.428Z,90.83
2024-04-21T01:24:51.392Z,91.28
2024-04-21T01:25:51.362Z,91.49
2024-04-21T01:26:51.348Z,92.00
2024-04-21T01:27:51.364Z,91.69
2024-04-21T01:28:51.355Z,92.32
2024-04-21T01:29:51.321Z,92.25
2024-04-21T01:30:51.326Z,92.19
2024-04-21T01:31:51.312Z,93.74
2024-04-21T01:32:51.402Z,93.00
2024-04-21T01:33:51.370Z,92.84
2024-04-21T01:34:51.276Z,94.14
2024-04-21T01:35:51.288Z,94.81
2024-04-21T01:36:51.283Z,95.22
2024-04-21T01:37:51.273Z,95.12
2024-04-21T01:38:51.247Z,94.74
2024-04-21T01:39:51.244Z,95.32
2024-04-21T01:40:51.224Z,95.68
2024-04-21T01:41:51.206Z,96.15
2024-04-21T01:42:51.223Z,95.68
2024-04-21T01:43:51.186Z,95.37
2024-04-21T01:44:51.177Z,95.68
2024-04-21T01:45:51.207Z,95.26
2024-04-21T01:46:51.198Z,95.84
2024-04-21T01:47:51.165Z,94.74
2024-04-21T01:48:51.153Z,95.16
2024-04-21T01:49:51.135Z,95.22
2024-04-21T01:50:51.141Z,95.26
2024-04-21T01:51:51.125Z,95.06
2024-04-21T01:52:51.105Z,95.26
2024-04-21T01:53:51.093Z,95.16
2024-04-21T01:54:51.119Z,94.79
2024-04-21T01:55:51.072Z,94.58
2024-04-21T01:56:51.065Z,95.31
2024-04-21T01:57:51.091Z,95.31
2024-04-21T01:58:51.037Z,95.31
2024-04-21T01:59:51.030Z,94.68
2024-04-21T02:00:51.067Z,94.79
2024-04-21T02:01:51.075Z,94.73
2024-04-21T02:02:51.013Z,95.87
2024-04-21T02:03:51.044Z,96.29
2024-04-21T02:04:50.978Z,95.36
2024-04-21T02:05:50.961Z,96.29
2024-04-21T02:06:50.980Z,95.25
2024-04-21T02:07:50.944Z,96.19
2024-04-21T02:08:50.937Z,96.08
2024-04-21T02:09:50.969Z,95.56
2024-04-21T02:10:50.913Z,95.98
2024-04-21T02:11:50.915Z,95.15
2024-04-21T02:12:50.913Z,95.25
2024-04-21T02:13:50.890Z,95.36
2024-04-21T02:14:50.872Z,95.15
2024-04-21T02:15:50.910Z,94.84
2024-04-21T02:16:50.898Z,93.80
2024-04-21T02:17:50.943Z,94.01
2024-04-21T02:18:50.856Z,93.90
2024-04-21T02:19:50.831Z,93.80
2024-04-21T02:20:50.828Z,93.28
2024-04-21T02:21:50.838Z,92.55
2024-04-21T02:22:50.802Z,92.35
2024-04-21T02:23:50.809Z,91.93
2024-04-21T02:24:50.812Z,92.24
2024-04-21T02:25:50.788Z,92.14
2024-04-21T02:26:50.758Z,92.14
2024-04-21T02:27:50.796Z,91.83
2024-04-21T02:28:50.743Z,91.24
2024-04-21T02:29:50.752Z,91.45
2024-04-21T02:30:50.810Z,91.24
2024-04-21T02:31:50.719Z,91.76
2024-04-21T02:32:50.797Z,91.35
2024-04-21T02:33:50.731Z,90.72
2024-04-21T02:34:50.702Z,90.31
2024-04-21T02:35:50.704Z,89.89
2024-04-21T02:36:50.683Z,90.41
2024-04-21T02:37:50.676Z,90.72
2024-04-21T02:38:50.646Z,90.56
2024-04-21T02:39:50.670Z,90.91
2024-04-21T02:40:50.627Z,90.91
2024-04-21T02:41:50.631Z,91.12
2024-04-21T02:42:50.660Z,91.53
2024-04-21T02:43:50.604Z,91.89
2024-04-21T02:44:50.594Z,91.89
2024-04-21T02:45:50.616Z,91.99
2024-04-21T02:46:50.610Z,91.93
2024-04-21T02:47:50.620Z,92.76
2024-04-21T02:48:50.572Z,92.91
2024-04-21T02:49:50.545Z,93.23
2024-04-21T02:50:50.521Z,93.64
2024-04-21T02:51:50.530Z,93.68
2024-04-21T02:52:50.531Z,94.93
2024-04-21T02:53:50.512Z,95.25
2024-04-21T02:54:50.517Z,95.45
2024-04-21T02:55:50.470Z,95.20
2024-04-21T02:56:50.462Z,94.99
2024-04-21T02:57:50.461Z,95.14
2024-04-21T02:58:50.465Z,94.99
2024-04-21T02:59:50.441Z,95.03
2024-04-21T03:00:50.515Z,94.72
2024-04-21T03:01:50.450Z,94.93
2024-04-21T03:02:50.436Z,94.10
2024-04-21T03:03:50.528Z,94.51
2024-04-21T03:04:50.430Z,94.72
2024-04-21T03:05:50.375Z,94.89
2024-04-21T03:06:50.387Z,95.09
2024-04-21T03:07:50.375Z,94.62
2024-04-21T03:08:50.362Z,94.66
2024-04-21T03:09:50.348Z,95.29
2024-04-21T03:10:50.325Z,95.39
2024-04-21T03:11:50.320Z,95.56
2024-04-21T03:12:50.330Z,95.25
2024-04-21T03:13:50.289Z,95.45
2024-04-21T03:14:50.279Z,95.50
2024-04-21T03:15:50.360Z,95.60
2024-04-21T03:16:50.289Z,95.70
2024-04-21T03:17:50.329Z,96.33
2024-04-21T03:18:50.262Z,95.95
2024-04-21T03:19:50.241Z,95.95
2024-04-21T03:20:50.215Z,95.85
2024-04-21T03:21:50.235Z,96.06
2024-04-21T03:22:50.224Z,95.54
2024-04-21T03:23:50.195Z,96.42
2024-04-21T03:24:50.206Z,96.69
2024-04-21T03:25:50.182Z,96.52
2024-04-21T03:26:50.167Z,97.14
2024-04-21T03:27:50.197Z,97.04
2024-04-21T03:28:50.138Z,97.14
2024-04-21T03:29:50.144Z,97.35
2024-04-21T03:30:50.150Z,96.89
2024-04-21T03:31:50.119Z,97.14
2024-04-21T03:32:50.127Z,97.77
2024-04-21T03:33:50.106Z,97.77
2024-04-21T03:34:50.069Z,97.46
2024-04-21T03:35:50.071Z,97.46
2024-04-21T03:36:50.086Z,97.77
2024-04-21T03:37:50.047Z,97.56
2024-04-21T03:38:50.030Z,97.46
2024-04-21T03:39:50.025Z,97.56
2024-04-21T03:40:50.024Z,97.35
2024-04-21T03:41:50.015Z,97.67
2024-04-21T03:42:50.027Z,97.88
2024-04-21T03:43:49.998Z,97.88
2024-04-21T03:44:49.966Z,97.62
2024-04-21T03:45:49.993Z,97.83
2024-04-21T03:46:49.997Z,96.79
2024-04-21T03:47:50.031Z,96.58
2024-04-21T03:48:49.954Z,96.75
2024-04-21T03:49:49.927Z,96.58
2024-04-21T03:50:49.926Z,96.37
2024-04-21T03:51:49.959Z,96.64
2024-04-21T03:52:49.887Z,96.69
2024-04-21T03:53:49.877Z,95.85
2024-04-21T03:54:49.881Z,96.69
2024-04-21T03:55:49.874Z,96.58
2024-04-21T03:56:49.861Z,96.48
2024-04-21T03:57:49.861Z,96.69
2024-04-21T03:58:49.834Z,96.58
2024-04-21T03:59:49.819Z,96.37
2024-04-21T04:00:49.921Z,96.69
2024-04-21T04:01:49.886Z,96.83
2024-04-21T04:02:49.812Z,97.04
2024-04-21T04:03:49.866Z,98.08
2024-04-21T04:04:49.829Z,97.67
2024-04-21T04:05:49.757Z,97.46
2024-04-21T04:06:49.749Z,97.77
2024-04-21T04:07:49.734Z,97.88
2024-04-21T04:08:49.717Z,97.71
2024-04-21T04:09:49.808Z,98.34
2024-04-21T04:10:49.698Z,98.19
2024-04-21T04:11:49.691Z,97.77
2024-04-21T04:12:49.686Z,97.88
2024-04-21T04:13:49.669Z,98.39
2024-04-21T04:14:49.672Z,98.19
2024-04-21T04:15:49.683Z,97.41
2024-04-21T04:16:49.648Z,97.83
2024-04-21T04:17:49.729Z,97.72
2024-04-21T04:18:49.643Z,97.99
2024-04-21T04:19:49.620Z,97.41
2024-04-21T04:20:49.599Z,96.95
2024-04-21T04:21:49.621Z,96.53
2024-04-21T04:22:49.580Z,96.43
2024-04-21T04:23:49.582Z,96.48
2024-04-21T04:24:49.571Z,96.79
2024-04-21T04:25:49.550Z,96.58
2024-04-21T04:26:49.536Z,96.58
2024-04-21T04:27:49.588Z,96.48
2024-04-21T04:28:49.533Z,96.48
2024-04-21T04:29:49.508Z,96.79
2024-04-21T04:30:49.511Z,96.53
2024-04-21T04:31:49.490Z,96.69
2024-04-21T04:32:49.550Z,96.79
2024-04-21T04:33:49.594Z,97.00
2024-04-21T04:34:49.456Z,95.60
2024-04-21T04:35:49.452Z,95.75
2024-04-21T04:36:49.483Z,95.64
2024-04-21T04:37:51.346Z,95.39
2024-04-21T04:38:49.410Z,96.58
2024-04-21T04:39:49.419Z,95.70
2024-04-21T04:40:49.400Z,96.06
2024-04-21T04:41:49.383Z,96.53
2024-04-21T04:42:49.448Z,95.85
2024-04-21T04:43:49.362Z,95.85
2024-04-21T04:44:49.358Z,95.70
2024-04-21T04:45:49.345Z,96.43
2024-04-21T04:46:49.338Z,96.26
2024-04-21T04:47:49.368Z,96.79
2024-04-21T04:48:49.349Z,96.37
2024-04-21T04:49:49.302Z,96.06
2024-04-21T04:50:49.290Z,95.85
2024-04-21T04:51:49.324Z,94.98
2024-04-21T04:52:49.282Z,95.60
2024-04-21T04:53:49.264Z,94.76
2024-04-21T04:54:49.265Z,95.56
2024-04-21T04:55:49.235Z,95.60
2024-04-21T04:56:49.240Z,95.70
2024-04-21T04:57:49.224Z,95.18
2024-04-21T04:58:49.215Z,96.01
2024-04-21T04:59:49.205Z,96.01
2024-04-21T05:00:49.331Z,96.48
2024-04-21T05:01:49.330Z,95.75
2024-04-21T05:02:49.246Z,96.89
2024-04-21T05:03:49.241Z,96.58
2024-04-21T05:04:49.247Z,96.73
2024-04-21T05:05:49.147Z,97.14
2024-04-21T05:06:49.148Z,98.08
2024-04-21T05:07:49.118Z,97.94
2024-04-21T05:08:49.107Z,97.83
2024-04-21T05:09:49.127Z,97.72
2024-04-21T05:10:49.095Z,96.89
2024-04-21T05:11:49.068Z,97.10
2024-04-21T05:12:49.104Z,96.85
2024-04-21T05:13:49.057Z,96.53
2024-04-21T05:14:49.044Z,96.79
2024-04-21T05:15:49.094Z,96.58
2024-04-21T05:16:49.025Z,96.58
2024-04-21T05:17:49.090Z,96.75
2024-04-21T05:18:49.031Z,96.75
2024-04-21T05:19:49.010Z,96.43
2024-04-21T05:20:48.995Z,96.58
2024-04-21T05:21:49.018Z,96.37
2024-04-21T05:22:48.969Z,96.69
2024-04-21T05:23:48.952Z,97.20
2024-04-21T05:24:48.996Z,97.10
2024-04-21T05:25:48.946Z,96.69
2024-04-21T05:26:48.937Z,96.37
2024-04-21T05:27:48.934Z,96.48
2024-04-21T05:28:50.252Z,97.00
2024-04-21T05:29:48.907Z,97.06
2024-04-21T05:30:48.912Z,97.41
2024-04-21T05:31:48.936Z,97.00
2024-04-21T05:32:48.919Z,97.10
2024-04-21T05:33:48.887Z,96.26
2024-04-21T05:34:48.887Z,96.85
2024-04-21T05:35:48.832Z,96.64
2024-04-21T05:36:48.858Z,96.85
2024-04-21T05:37:48.811Z,95.60
2024-04-21T05:38:48.805Z,96.53
2024-04-21T05:39:48.799Z,96.85
2024-04-21T05:40:48.770Z,96.12
2024-04-21T05:41:48.768Z,96.53
2024-04-21T05:42:48.801Z,96.49
2024-04-21T05:43:48.772Z,96.70
2024-04-21T05:44:51.841Z,96.24
2024-04-21T05:45:48.740Z,96.55
2024-04-21T05:46:48.716Z,95.09
2024-04-21T05:47:48.829Z,95.76
2024-04-21T05:48:48.813Z,95.25
2024-04-21T05:49:48.847Z,95.40
2024-04-21T05:50:48.674Z,95.56
2024-04-21T05:51:48.750Z,95.14
2024-04-21T05:52:48.661Z,95.76
2024-04-21T05:53:48.644Z,95.62
2024-04-21T05:54:48.666Z,95.35
2024-04-21T05:55:48.631Z,95.09
2024-04-21T05:56:48.608Z,95.36
2024-04-21T05:57:48.655Z,95.30
2024-04-21T05:58:48.590Z,94.06
2024-04-21T05:59:48.579Z,94.47
2024-04-21T06:00:48.652Z,94.64
2024-04-21T06:01:48.588Z,94.37
2024-04-21T06:02:48.580Z,93.91
2024-04-21T06:03:48.579Z,94.32
2024-04-21T06:04:48.612Z,94.12
2024-04-21T06:05:48.508Z,94.70
2024-04-21T06:06:48.575Z,94.18
2024-04-21T06:07:48.500Z,93.82
2024-04-21T06:08:48.475Z,92.82
2024-04-21T06:09:48.477Z,93.35
2024-04-21T06:10:48.497Z,93.14
2024-04-21T06:11:48.514Z,93.03
2024-04-21T06:12:48.483Z,93.03
2024-04-21T06:13:48.435Z,93.24
2024-04-21T06:14:48.411Z,92.72
2024-04-21T06:15:48.432Z,93.03
2024-04-21T06:16:48.409Z,92.82
2024-04-21T06:17:48.443Z,92.82
2024-04-21T06:18:49.718Z,92.72
2024-04-21T06:19:48.366Z,92.72
2024-04-21T06:20:48.363Z,92.82
2024-04-21T06:21:48.382Z,92.72
2024-04-21T06:22:48.331Z,93.14
2024-04-21T06:23:48.313Z,93.03
2024-04-21T06:24:48.310Z,93.29
2024-04-21T06:25:48.305Z,93.45
2024-04-21T06:26:50.029Z,93.45
2024-04-21T06:27:48.302Z,93.35
2024-04-21T06:28:48.283Z,93.97
2024-04-21T06:29:48.267Z,94.34
2024-04-21T06:30:48.300Z,93.88
2024-04-21T06:31:48.255Z,92.53
2024-04-21T06:32:48.274Z,91.80
2024-04-21T06:33:48.230Z,92.01
2024-04-21T06:34:48.221Z,91.97
2024-04-21T06:35:48.209Z,91.66
2024-04-21T06:36:48.224Z,91.86
2024-04-21T06:37:48.181Z,90.69
2024-04-21T06:38:48.168Z,90.17
2024-04-21T06:39:48.211Z,89.81
2024-04-21T06:40:48.156Z,88.26
2024-04-21T06:41:48.140Z,89.29
2024-04-21T06:42:48.157Z,88.26
2024-04-21T06:43:48.112Z,90.12
2024-04-21T06:44:48.122Z,90.08
2024-04-21T06:45:48.166Z,90.04
2024-04-21T06:46:48.086Z,89.48
2024-04-21T06:47:48.247Z,87.78
2024-04-21T06:48:48.155Z,86.33
2024-04-21T06:49:48.065Z,86.65
2024-04-21T06:50:48.045Z,86.91
2024-04-21T06:51:48.039Z,85.63
2024-04-21T06:52:48.023Z,85.94
2024-04-21T06:53:48.037Z,85.49
2024-04-21T06:54:48.100Z,84.45
2024-04-21T06:55:47.999Z,84.97
2024-04-21T06:56:47.990Z,84.08
2024-04-21T06:57:48.265Z,83.36
2024-04-21T06:58:47.975Z,83.84
2024-04-21T06:59:47.957Z,83.56
2024-04-21T07:00:48.019Z,83.36
2024-04-21T07:01:48.168Z,83.81
2024-04-21T07:02:47.925Z,83.91
2024-04-21T07:03:48.000Z,84.11
2024-04-21T07:04:47.915Z,81.10
2024-04-21T07:05:47.896Z,79.96
2024-04-21T07:06:47.934Z,78.00
2024-04-21T07:07:47.874Z,77.66
2024-04-21T07:08:47.886Z,78.21
2024-04-21T07:09:47.955Z,80.76
2024-04-21T07:10:47.867Z,80.62
2024-04-21T07:11:47.868Z,78.97
2024-04-21T07:12:47.866Z,79.07
2024-04-21T07:13:51.598Z,78.83
2024-04-21T07:14:48.821Z,78.04
2024-04-21T07:15:47.976Z,78.42
2024-04-21T07:16:47.788Z,80.28
2024-04-21T07:17:47.950Z,80.11
2024-04-21T07:18:49.400Z,81.41
2024-04-21T07:19:47.796Z,80.73
2024-04-21T07:20:47.756Z,81.24
2024-04-21T07:21:47.744Z,80.69
2024-04-21T07:22:47.737Z,79.45
2024-04-21T07:23:47.713Z,80.24
2024-04-21T07:24:47.709Z,79.04
2024-04-21T07:25:47.706Z,79.97
2024-04-21T07:26:47.706Z,79.55
2024-04-21T07:27:47.688Z,79.04
2024-04-21T07:28:47.663Z,79.35
2024-04-21T07:29:47.650Z,78.14
2024-04-21T07:30:47.645Z,79.25
2024-04-21T07:31:47.659Z,79.01
2024-04-21T07:32:47.688Z,79.73
2024-04-21T07:33:47.628Z,80.04
2024-04-21T07:34:47.602Z,80.11
2024-04-21T07:35:47.595Z,80.21
2024-04-21T07:36:47.592Z,80.62
2024-04-21T07:37:47.562Z,79.52
2024-04-21T07:38:47.567Z,80.25
2024-04-21T07:39:47.546Z,80.76
2024-04-21T07:40:47.557Z,80.08
2024-04-21T07:41:47.539Z,80.80
2024-04-21T07:42:47.521Z,80.60
2024-04-21T07:43:47.511Z,80.53
2024-04-21T07:44:47.500Z,81.39
2024-04-21T07:45:47.500Z,81.91
2024-04-21T07:46:47.477Z,81.60
2024-04-21T07:47:47.544Z,81.87
2024-04-21T07:48:47.453Z,83.05
2024-04-21T07:49:47.465Z,82.60
2024-04-21T07:50:47.471Z,82.08
2024-04-21T07:51:47.428Z,81.87
2024-04-21T07:52:47.423Z,81.46
2024-04-21T07:53:47.412Z,81.15
2024-04-21T07:54:47.424Z,81.25
2024-04-21T07:55:47.394Z,82.90
2024-04-21T07:56:47.385Z,82.87
2024-04-21T07:57:47.380Z,81.73
2024-04-21T07:58:47.355Z,80.66
2024-04-21T07:59:47.361Z,80.70
2024-04-21T08:00:47.367Z,80.46
2024-04-21T08:01:47.413Z,80.66
2024-04-21T08:02:47.362Z,80.87
2024-04-21T08:03:47.356Z,80.70
2024-04-21T08:04:47.308Z,80.29
2024-04-21T08:05:47.302Z,80.53
2024-04-21T08:06:47.279Z,81.67
2024-04-21T08:07:47.266Z,81.15
2024-04-21T08:08:51.818Z,81.98
2024-04-21T08:09:48.255Z,83.45
2024-04-21T08:10:54.119Z,83.37
2024-04-21T08:11:48.270Z,82.57
2024-04-21T08:12:47.213Z,79.75
2024-04-21T08:13:47.217Z,78.97
2024-04-21T08:14:47.194Z,80.41
2024-04-21T08:15:47.188Z,80.30
2024-04-21T08:16:47.174Z,79.86
2024-04-21T08:17:47.285Z,77.90
2024-04-21T08:18:47.204Z,78.69
2024-04-21T08:19:47.139Z,78.97
2024-04-21T08:20:48.676Z,79.97
2024-04-21T08:21:47.127Z,79.14
2024-04-21T08:22:47.138Z,80.52
2024-04-21T08:23:47.118Z,80.83
2024-04-21T08:24:47.116Z,80.52
2024-04-21T08:25:47.080Z,79.11
2024-04-21T08:26:47.081Z,80.18
2024-04-21T08:27:47.088Z,80.49
2024-04-21T08:28:47.069Z,80.74
2024-04-21T08:29:47.056Z,81.14
2024-04-21T08:30:47.050Z,81.72
2024-04-21T08:31:47.047Z,79.14
2024-04-21T08:32:47.118Z,79.04
2024-04-21T08:33:47.022Z,79.04
2024-04-21T08:34:47.031Z,78.45
2024-04-21T08:35:46.986Z,79.01
2024-04-21T08:36:46.978Z,78.18
2024-04-21T08:37:46.985Z,79.01
2024-04-21T08:38:46.955Z,80.08
2024-04-21T08:39:46.952Z,81.01
2024-04-21T08:40:46.962Z,80.90
2024-04-21T08:41:46.927Z,81.01
2024-04-21T08:42:46.924Z,80.60
2024-04-21T08:43:46.910Z,80.56
2024-04-21T08:44:46.895Z,80.29
2024-04-21T08:45:46.880Z,80.56
2024-04-21T08:46:48.440Z,80.70
2024-04-21T08:47:46.914Z,79.15
2024-04-21T08:48:46.858Z,79.36
2024-04-21T08:49:46.844Z,78.98
2024-04-21T08:50:46.834Z,80.53
2024-04-21T08:51:46.836Z,80.94
2024-04-21T08:52:46.810Z,81.11
2024-04-21T08:53:46.824Z,80.60
2024-04-21T08:54:46.792Z,79.87
2024-04-21T08:55:46.777Z,78.32
2024-04-21T08:56:46.784Z,80.60
2024-04-21T08:57:46.751Z,80.90
2024-04-21T08:58:46.770Z,80.60
2024-04-21T08:59:46.730Z,80.70
2024-04-21T09:00:47.061Z,80.00
2024-04-21T09:01:46.766Z,80.21
2024-04-21T09:02:46.725Z,79.97
2024-04-21T09:03:46.738Z,77.70
2024-04-21T09:04:46.753Z,78.52
2024-04-21T09:05:46.677Z,77.80
2024-04-21T09:06:46.673Z,78.45
2024-04-21T09:07:46.658Z,78.66
2024-04-21T09:08:46.642Z,78.35
2024-04-21T09:09:46.630Z,78.35
2024-04-21T09:10:46.712Z,77.98
2024-04-21T09:11:46.612Z,79.22
2024-04-21T09:12:46.595Z,80.18
2024-04-21T09:13:46.593Z,80.80
2024-04-21T09:14:46.596Z,81.15
2024-04-21T09:15:46.584Z,81.46
2024-04-21T09:16:46.566Z,81.19
2024-04-21T09:17:46.647Z,81.77
2024-04-21T09:18:46.651Z,81.15
2024-04-21T09:19:46.536Z,81.11
2024-04-21T09:20:46.528Z,80.74
2024-04-21T09:21:46.505Z,79.77
2024-04-21T09:22:46.494Z,80.70
2024-04-21T09:23:46.483Z,80.08
2024-04-21T09:24:46.479Z,79.15
2024-04-21T09:25:46.472Z,78.63
2024-04-21T09:26:46.449Z,79.01
2024-04-21T09:27:46.447Z,80.11
2024-04-21T09:28:46.429Z,79.97
2024-04-21T09:29:46.438Z,78.76
2024-04-21T09:30:46.404Z,77.62
2024-04-21T09:31:46.404Z,75.77
2024-04-21T09:32:46.484Z,77.73
2024-04-21T09:33:46.391Z,76.25
2024-04-21T09:34:46.392Z,76.04
2024-04-21T09:35:46.375Z,74.80
2024-04-21T09:36:46.349Z,74.60
2024-04-21T09:37:46.355Z,75.73
2024-04-21T09:38:46.344Z,75.15
2024-04-21T09:39:46.325Z,75.84
2024-04-21T09:40:46.310Z,74.74
2024-04-21T09:41:46.302Z,73.19
2024-04-21T09:42:46.292Z,75.15
2024-04-21T09:43:46.302Z,75.26
2024-04-21T09:44:46.286Z,75.56
2024-04-21T09:45:46.267Z,75.98
2024-04-21T09:46:46.252Z,76.12
2024-04-21T09:47:46.323Z,75.29
2024-04-21T09:48:46.242Z,75.22
2024-04-21T09:49:46.237Z,75.84
2024-04-21T09:50:46.212Z,76.87
2024-04-21T09:51:46.201Z,77.42
2024-04-21T09:52:46.200Z,76.90
2024-04-21T09:53:46.192Z,79.01
2024-04-21T09:54:46.170Z,79.11
2024-04-21T09:55:46.165Z,76.94
2024-04-21T09:56:46.150Z,78.49
2024-04-21T09:57:46.153Z,78.80
2024-04-21T09:58:46.143Z,78.18
2024-04-21T09:59:46.118Z,78.70
2024-04-21T10:00:46.191Z,78.53
2024-04-21T10:01:46.244Z,78.01
2024-04-21T10:02:46.106Z,78.98
2024-04-21T10:03:46.122Z,79.08
2024-04-21T10:04:46.103Z,79.19
2024-04-21T10:05:46.059Z,78.36
2024-04-21T10:06:46.047Z,79.49
2024-04-21T10:07:46.058Z,78.56
2024-04-21T10:08:46.023Z,78.77
2024-04-21T10:09:46.018Z,78.53
2024-04-21T10:10:46.038Z,77.81
2024-04-21T10:11:46.008Z,77.91
2024-04-21T10:12:45.996Z,77.91
2024-04-21T10:13:45.987Z,77.29
2024-04-21T10:14:45.965Z,77.91
2024-04-21T10:15:45.955Z,77.60
2024-04-21T10:16:45.948Z,78.74
2024-04-21T10:17:45.989Z,79.25
2024-04-21T10:18:46.040Z,80.25
2024-04-21T10:19:45.934Z,78.49
2024-04-21T10:20:45.906Z,78.94
2024-04-21T10:21:45.917Z,77.60
2024-04-21T10:22:45.900Z,77.67
2024-04-21T10:23:45.880Z,78.22
2024-04-21T10:24:45.866Z,78.63
2024-04-21T10:25:45.857Z,78.70
2024-04-21T10:26:45.857Z,77.39
2024-04-21T10:27:45.836Z,77.81
2024-04-21T10:28:45.820Z,78.42
2024-04-21T10:29:45.819Z,79.87
2024-04-21T10:30:45.837Z,78.63
2024-04-21T10:31:45.828Z,77.50
2024-04-21T10:32:45.902Z,78.74
2024-04-21T10:33:45.777Z,80.22
2024-04-21T10:34:45.760Z,79.49
2024-04-21T10:35:45.768Z,79.39
2024-04-21T10:36:45.750Z,80.84
2024-04-21T10:37:45.743Z,81.32
2024-04-21T10:38:45.724Z,80.53
2024-04-21T10:39:45.719Z,80.49
2024-04-21T10:40:45.715Z,80.90
2024-04-21T10:41:45.725Z,81.35
2024-04-21T10:42:45.678Z,82.90
2024-04-21T10:43:45.675Z,81.05
2024-04-21T10:44:45.663Z,80.22
2024-04-21T10:45:45.683Z,79.43
2024-04-21T10:46:45.647Z,80.49
2024-04-21T10:47:45.698Z,80.18
2024-04-21T10:48:45.614Z,80.53
2024-04-21T10:49:45.615Z,77.84
2024-04-21T10:50:45.608Z,77.53
2024-04-21T10:51:45.589Z,78.53
2024-04-21T10:52:45.585Z,78.94
2024-04-21T10:53:45.567Z,76.98
2024-04-21T10:54:45.575Z,78.49
2024-04-21T10:55:45.577Z,78.49
2024-04-21T10:56:45.536Z,78.14
2024-04-21T10:57:45.534Z,78.45
2024-04-21T10:58:45.516Z,78.25
2024-04-21T10:59:45.523Z,78.35
2024-04-21T11:00:45.511Z,76.60
2024-04-21T11:01:45.561Z,77.11
2024-04-21T11:02:45.496Z,78.35
2024-04-21T11:03:45.479Z,76.60
2024-04-21T11:04:45.498Z,75.57
2024-04-21T11:05:45.443Z,75.05
2024-04-21T11:06:45.432Z,74.53
2024-04-21T11:07:47.194Z,76.18
2024-04-21T11:08:45.409Z,75.46
2024-04-21T11:09:45.437Z,75.98
2024-04-21T11:10:45.458Z,75.53
2024-04-21T11:11:45.390Z,75.32
2024-04-21T11:12:45.372Z,75.01
2024-04-21T11:13:45.365Z,73.98
2024-04-21T11:14:45.369Z,74.40
2024-04-21T11:15:45.362Z,75.74
2024-04-21T11:16:45.331Z,72.13
2024-04-21T11:17:45.352Z,73.57
2024-04-21T11:18:45.397Z,72.85
2024-04-21T11:19:45.323Z,74.05
2024-04-21T11:20:45.284Z,74.36
2024-04-21T11:21:45.281Z,75.15
2024-04-21T11:22:45.276Z,70.75
2024-04-21T11:23:45.276Z,72.88
2024-04-21T11:24:45.258Z,72.13
2024-04-21T11:25:45.241Z,70.41
2024-04-21T11:26:45.232Z,70.51
2024-04-21T11:27:45.218Z,72.64
2024-04-21T11:28:45.248Z,70.28
2024-04-21T11:29:45.201Z,70.58
2024-04-21T11:30:45.193Z,69.93
2024-04-21T11:31:45.189Z,70.72
2024-04-21T11:32:45.278Z,70.14
2024-04-21T11:33:45.174Z,70.04
2024-04-21T11:34:45.162Z,70.14
2024-04-21T11:35:45.143Z,70.58
2024-04-21T11:36:45.143Z,70.37
2024-04-21T11:37:45.117Z,71.69
2024-04-21T11:38:45.115Z,70.65
2024-04-21T11:39:45.101Z,70.48
2024-04-21T11:40:45.082Z,70.07
2024-04-21T11:41:45.081Z,70.62
2024-04-21T11:42:45.080Z,72.88
2024-04-21T11:43:45.139Z,71.51
2024-04-21T11:44:45.042Z,72.16
2024-04-21T11:45:45.041Z,70.68
2024-04-21T11:46:45.028Z,70.62
2024-04-21T11:47:45.127Z,71.13
2024-04-21T11:48:47.117Z,74.88
2024-04-21T11:49:45.008Z,71.27
2024-04-21T11:50:44.988Z,71.86
2024-04-21T11:51:44.976Z,71.92
2024-04-21T11:52:44.978Z,70.45
2024-04-21T11:53:44.969Z,70.86
2024-04-21T11:54:44.944Z,73.98
2024-04-21T11:55:44.944Z,69.87
2024-04-21T11:56:44.921Z,70.15
2024-04-21T11:57:44.941Z,69.84
2024-04-21T11:58:44.943Z,70.36
2024-04-21T11:59:44.896Z,72.06
2024-04-21T12:00:44.911Z,69.67
2024-04-21T12:01:49.915Z,66.28
2024-04-21T12:02:45.874Z,64.09
2024-04-21T12:03:44.933Z,64.84
2024-04-21T12:04:44.954Z,66.45
2024-04-21T12:05:44.827Z,68.16
2024-04-21T12:06:44.848Z,68.48
2024-04-21T12:07:44.812Z,66.01
2024-04-21T12:08:44.801Z,68.54
2024-04-21T12:09:44.792Z,65.74
2024-04-21T12:10:44.775Z,66.63
2024-04-21T12:11:44.787Z,68.27
2024-04-21T12:12:44.754Z,64.56
2024-04-21T12:13:44.769Z,64.14
2024-04-21T12:14:44.737Z,63.66
2024-04-21T12:15:44.754Z,65.17
2024-04-21T12:16:44.804Z,65.20
2024-04-21T12:17:44.718Z,63.35
2024-04-21T12:18:44.698Z,62.98
2024-04-21T12:19:44.683Z,64.51
2024-04-21T12:20:44.701Z,65.95
2024-04-21T12:21:44.680Z,63.69
2024-04-21T12:22:44.681Z,62.83
2024-04-21T12:23:44.649Z,62.88
2024-04-21T12:24:44.660Z,64.36
2024-04-21T12:25:44.635Z,64.76
2024-04-21T12:26:44.610Z,65.69
2024-04-21T12:27:44.607Z,64.87
2024-04-21T12:28:44.596Z,64.39
2024-04-21T12:29:44.595Z,65.20
2024-04-21T12:30:44.614Z,64.79
2024-04-21T12:31:44.569Z,64.62
2024-04-21T12:32:44.627Z,66.75
2024-04-21T12:33:44.554Z,65.20
2024-04-21T12:34:45.690Z,64.48
2024-04-21T12:35:45.707Z,64.51
2024-04-21T12:36:45.649Z,63.56
2024-04-21T12:37:45.650Z,65.86
2024-04-21T12:38:45.626Z,64.54
2024-04-21T12:39:45.633Z,65.58
2024-04-21T12:40:45.646Z,66.64
2024-04-21T12:41:45.604Z,66.53
2024-04-21T12:42:46.071Z,66.64
2024-04-21T12:43:46.602Z,67.36
2024-04-21T12:44:45.579Z,68.08
2024-04-21T12:45:45.563Z,67.46
2024-04-21T12:46:45.574Z,65.30
2024-04-21T12:47:45.656Z,66.56
2024-04-21T12:48:45.530Z,66.56
2024-04-21T12:49:45.544Z,67.80
2024-04-21T12:50:45.519Z,66.97
2024-04-21T12:51:45.490Z,65.95
2024-04-21T12:52:45.494Z,66.77